Aviation Digital Data Service (ADDS)

Output produced by METARs form (1736 UTC 03 June 2020)
found at http://www.aviationweather.gov/metar/data/
 
METAR text: RJSR 031000Z VRB02KT 9999 FEW030 SCT/// 18/16 Q1005
Conditions at: RJSR (ODATE-NOSHIRO , JP) observed 1000 UTC 03 June 2020
Temperature: 18.0°C (64°F)
Dewpoint: 16.0°C (61°F) [RH = 88%]
Pressure (altimeter): 29.68 inches Hg (1005.0 mb)
Winds: variable direction winds at 2 MPH (2 knots; 1.0 m/s)
Visibility: 6 or more miles (10+ km)
Ceiling: at least 12,000 feet AGL
Clouds: few clouds at 3000 feet AGL
Weather: no significant weather observed at this time

METAR text: RJSR 030900Z 29005KT 260V330 9999 FEW030 SCT/// 20/16 Q1005
Conditions at: RJSR (ODATE-NOSHIRO , JP) observed 0900 UTC 03 June 2020
Temperature: 20.0°C (68°F)
Dewpoint: 16.0°C (61°F) [RH = 78%]
Pressure (altimeter): 29.68 inches Hg (1005.0 mb)
Winds: from the WNW (290 degrees) at 6 MPH (5 knots; 2.6 m/s)
Visibility: 6 or more miles (10+ km)
Ceiling: at least 12,000 feet AGL
Clouds: few clouds at 3000 feet AGL
Weather: no significant weather observed at this time

METAR text: RJSR 030800Z 27007KT 210V330 9999 FEW030 SCT/// 22/16 Q1005
Conditions at: RJSR (ODATE-NOSHIRO , JP) observed 0800 UTC 03 June 2020
Temperature: 22.0°C (72°F)
Dewpoint: 16.0°C (61°F) [RH = 69%]
Pressure (altimeter): 29.68 inches Hg (1005.0 mb)
Winds: from the W (270 degrees) at 8 MPH (7 knots; 3.6 m/s)
Visibility: 6 or more miles (10+ km)
Ceiling: at least 12,000 feet AGL
Clouds: few clouds at 3000 feet AGL
Weather: no significant weather observed at this time

METAR text: RJSR 030700Z 30009KT 9999 FEW030 SCT/// 23/17 Q1005
Conditions at: RJSR (ODATE-NOSHIRO , JP) observed 0700 UTC 03 June 2020
Temperature: 23.0°C (73°F)
Dewpoint: 17.0°C (63°F) [RH = 69%]
Pressure (altimeter): 29.68 inches Hg (1005.0 mb)
Winds: from the WNW (300 degrees) at 10 MPH (9 knots; 4.6 m/s)
Visibility: 6 or more miles (10+ km)
Ceiling: at least 12,000 feet AGL
Clouds: few clouds at 3000 feet AGL
Weather: no significant weather observed at this time

METAR text: RJSR 030600Z 29008KT 240V320 9999 FEW030 SCT/// 24/17 Q1004
Conditions at: RJSR (ODATE-NOSHIRO , JP) observed 0600 UTC 03 June 2020
Temperature: 24.0°C (75°F)
Dewpoint: 17.0°C (63°F) [RH = 65%]
Pressure (altimeter): 29.65 inches Hg (1004.0 mb)
Winds: from the WNW (290 degrees) at 9 MPH (8 knots; 4.1 m/s)
Visibility: 6 or more miles (10+ km)
Ceiling: at least 12,000 feet AGL
Clouds: few clouds at 3000 feet AGL
Weather: no significant weather observed at this time

METAR text: RJSR 030500Z 30006KT 240V010 9999 FEW030 BKN/// 24/15 Q1004
Conditions at: RJSR (ODATE-NOSHIRO , JP) observed 0500 UTC 03 June 2020
Temperature: 24.0°C (75°F)
Dewpoint: 15.0°C (59°F) [RH = 57%]
Pressure (altimeter): 29.65 inches Hg (1004.0 mb)
Winds: from the WNW (300 degrees) at 7 MPH (6 knots; 3.1 m/s)
Visibility: 6 or more miles (10+ km)
Ceiling: at least 12,000 feet AGL
Clouds: few clouds at 3000 feet AGL
Weather: no significant weather observed at this time

METAR text: RJSR 030400Z VRB02KT 9999 FEW020 SCT030 BKN100 22/16 Q1005
Conditions at: RJSR (ODATE-NOSHIRO , JP) observed 0400 UTC 03 June 2020
Temperature: 22.0°C (72°F)
Dewpoint: 16.0°C (61°F) [RH = 69%]
Pressure (altimeter): 29.68 inches Hg (1005.0 mb)
Winds: variable direction winds at 2 MPH (2 knots; 1.0 m/s)
Visibility: 6 or more miles (10+ km)
Ceiling: 10000 feet AGL
Clouds: few clouds at 2000 feet AGL
scattered clouds at 3000 feet AGL
broken clouds at 10000 feet AGL
Weather: no significant weather observed at this time

METAR text: RJSR 030300Z 29003KT 260V340 9999 -SHRA FEW020 SCT040 BKN/// 21/16 Q1005
Conditions at: RJSR (ODATE-NOSHIRO , JP) observed 0300 UTC 03 June 2020
Temperature: 21.0°C (70°F)
Dewpoint: 16.0°C (61°F) [RH = 73%]
Pressure (altimeter): 29.68 inches Hg (1005.0 mb)
Winds: from the WNW (290 degrees) at 3 MPH (3 knots; 1.5 m/s)
Visibility: 6 or more miles (10+ km)
Ceiling: at least 12,000 feet AGL
Clouds: few clouds at 2000 feet AGL
scattered clouds at 4000 feet AGL
Weather: -SHRA  (light rain showers)

METAR text: RJSR 030200Z VRB03KT 9999 FEW020 SCT100 BKN/// 22/16 Q1006
Conditions at: RJSR (ODATE-NOSHIRO , JP) observed 0200 UTC 03 June 2020
Temperature: 22.0°C (72°F)
Dewpoint: 16.0°C (61°F) [RH = 69%]
Pressure (altimeter): 29.70 inches Hg (1006.0 mb)
Winds: variable direction winds at 3 MPH (3 knots; 1.5 m/s)
Visibility: 6 or more miles (10+ km)
Ceiling: at least 12,000 feet AGL
Clouds: few clouds at 2000 feet AGL
scattered clouds at 10000 feet AGL
Weather: no significant weather observed at this time

METAR text: RJSR 030100Z VRB02KT 9999 FEW020 SCT110 BKN/// 20/16 Q1006
Conditions at: RJSR (ODATE-NOSHIRO , JP) observed 0100 UTC 03 June 2020
Temperature: 20.0°C (68°F)
Dewpoint: 16.0°C (61°F) [RH = 78%]
Pressure (altimeter): 29.70 inches Hg (1006.0 mb)
Winds: variable direction winds at 2 MPH (2 knots; 1.0 m/s)
Visibility: 6 or more miles (10+ km)
Ceiling: at least 12,000 feet AGL
Clouds: few clouds at 2000 feet AGL
scattered clouds at 11000 feet AGL
Weather: no significant weather observed at this time

METAR text: RJSR 030000Z VRB02KT 9999 FEW005 SCT020 BKN/// 19/16 Q1006
Conditions at: RJSR (ODATE-NOSHIRO , JP) observed 0000 UTC 03 June 2020
Temperature: 19.0°C (66°F)
Dewpoint: 16.0°C (61°F) [RH = 83%]
Pressure (altimeter): 29.70 inches Hg (1006.0 mb)
Winds: variable direction winds at 2 MPH (2 knots; 1.0 m/s)
Visibility: 6 or more miles (10+ km)
Ceiling: at least 12,000 feet AGL
Clouds: few clouds at 500 feet AGL
scattered clouds at 2000 feet AGL
Weather: no significant weather observed at this time

METAR text: RJSR 022300Z 35003KT 260V070 7000 FEW002 SCT005 BKN015 16/15 Q1007
Conditions at: RJSR (ODATE-NOSHIRO , JP) observed 2300 UTC 02 June 2020
Temperature: 16.0°C (61°F)
Dewpoint: 15.0°C (59°F) [RH = 94%]
Pressure (altimeter): 29.73 inches Hg (1007.0 mb)
Winds: from the N (350 degrees) at 3 MPH (3 knots; 1.5 m/s)
Visibility: 4 miles ( 7 km)
Ceiling: 1500 feet AGL
Clouds: few clouds at 200 feet AGL
scattered clouds at 500 feet AGL
broken clouds at 1500 feet AGL
Weather: no significant weather observed at this time

METAR text: RJSR 021000Z 30004KT 9999 FEW020 BKN/// 17/15 Q1006
Conditions at: RJSR (ODATE-NOSHIRO , JP) observed 1000 UTC 02 June 2020
Temperature: 17.0°C (63°F)
Dewpoint: 15.0°C (59°F) [RH = 88%]
Pressure (altimeter): 29.70 inches Hg (1006.0 mb)
Winds: from the WNW (300 degrees) at 5 MPH (4 knots; 2.1 m/s)
Visibility: 6 or more miles (10+ km)
Ceiling: at least 12,000 feet AGL
Clouds: few clouds at 2000 feet AGL
Weather: no significant weather observed at this time

METAR text: RJSR 020900Z 27009KT 9999 FEW020 SCT030 BKN/// 19/15 Q1007
Conditions at: RJSR (ODATE-NOSHIRO , JP) observed 0900 UTC 02 June 2020
Temperature: 19.0°C (66°F)
Dewpoint: 15.0°C (59°F) [RH = 78%]
Pressure (altimeter): 29.73 inches Hg (1007.0 mb)
Winds: from the W (270 degrees) at 10 MPH (9 knots; 4.6 m/s)
Visibility: 6 or more miles (10+ km)
Ceiling: at least 12,000 feet AGL
Clouds: few clouds at 2000 feet AGL
scattered clouds at 3000 feet AGL
Weather: no significant weather observed at this time

METAR text: RJSR 020800Z 23009KT 190V270 9999 FEW020 SCT030 BKN/// 20/15 Q1006
Conditions at: RJSR (ODATE-NOSHIRO , JP) observed 0800 UTC 02 June 2020
Temperature: 20.0°C (68°F)
Dewpoint: 15.0°C (59°F) [RH = 73%]
Pressure (altimeter): 29.70 inches Hg (1006.0 mb)
Winds: from the SW (230 degrees) at 10 MPH (9 knots; 4.6 m/s)
Visibility: 6 or more miles (10+ km)
Ceiling: at least 12,000 feet AGL
Clouds: few clouds at 2000 feet AGL
scattered clouds at 3000 feet AGL
Weather: no significant weather observed at this time

METAR text: RJSR 020700Z 24008KT 210V270 9999 FEW020 BKN030 22/14 Q1006
Conditions at: RJSR (ODATE-NOSHIRO , JP) observed 0700 UTC 02 June 2020
Temperature: 22.0°C (72°F)
Dewpoint: 14.0°C (57°F) [RH = 60%]
Pressure (altimeter): 29.70 inches Hg (1006.0 mb)
Winds: from the WSW (240 degrees) at 9 MPH (8 knots; 4.1 m/s)
Visibility: 6 or more miles (10+ km)
Ceiling: 3000 feet AGL
Clouds: few clouds at 2000 feet AGL
broken clouds at 3000 feet AGL
Weather: no significant weather observed at this time

METAR text: RJSR 020600Z 23010KT 200V270 9999 FEW030 SCT040 22/15 Q1006
Conditions at: RJSR (ODATE-NOSHIRO , JP) observed 0600 UTC 02 June 2020
Temperature: 22.0°C (72°F)
Dewpoint: 15.0°C (59°F) [RH = 65%]
Pressure (altimeter): 29.70 inches Hg (1006.0 mb)
Winds: from the SW (230 degrees) at 12 MPH (10 knots; 5.1 m/s)
Visibility: 6 or more miles (10+ km)
Ceiling: at least 12,000 feet AGL
Clouds: few clouds at 3000 feet AGL
scattered clouds at 4000 feet AGL
Weather: no significant weather observed at this time